Time;durP1;ratioP1;P1;durP2;ratioP2;P2;SDS_P1;SDS_P2;PMS_P1;PMS_P2;Temp;Humidity;BMP_temperature;BMP_pressure;BME280_temperature;BME280_humidity;BME280_pressure;Samples;Min_cycle;Max_cycle;Signal;HPM_P1;HPM_P2
2020/12/08 00:00:01;;;;;;;27.85;15.98;;;;;;;;;;5072339;28;20192;-66
2020/12/08 00:02:30;;;;;;;28.52;17.85;;;;;;;;;;5073505;28;20215;-64
2020/12/08 00:04:57;;;;;;;27.67;17.17;;;;;;;;;;5073531;28;20194;-66
2020/12/08 00:07:24;;;;;;;25.88;16.95;;;;;;;;;;5073797;28;20214;-65
2020/12/08 00:09:50;;;;;;;30.58;17.40;;;;;;;;;;5073932;28;20661;-65
2020/12/08 00:12:17;;;;;;;27.52;16.25;;;;;;;;;;5073915;28;20542;-65
2020/12/08 00:14:44;;;;;;;30.58;17.70;;;;;;;;;;5073722;28;20202;-65
2020/12/08 00:17:11;;;;;;;28.83;17.25;;;;;;;;;;5073234;28;20188;-65
2020/12/08 00:19:37;;;;;;;22.85;14.65;;;;;;;;;;5073204;28;20196;-65
2020/12/08 00:22:04;;;;;;;26.63;16.20;;;;;;;;;;5073636;28;20222;-65
2020/12/08 00:24:31;;;;;;;26.00;15.77;;;;;;;;;;5073554;28;20190;-65
2020/12/08 00:26:57;;;;;;;27.70;17.48;;;;;;;;;;5072131;28;20204;-65
2020/12/08 00:29:24;;;;;;;26.30;16.27;;;;;;;;;;5073042;28;20220;-65
2020/12/08 00:31:53;;;;;;;27.98;16.45;;;;;;;;;;5073344;28;20640;-65
2020/12/08 00:34:20;;;;;;;32.63;19.65;;;;;;;;;;5073923;28;20200;-65
2020/12/08 00:36:46;;;;;;;26.80;15.93;;;;;;;;;;5073057;28;20196;-65
2020/12/08 00:39:16;;;;;;;30.63;18.25;;;;;;;;;;5073047;28;20204;-65
2020/12/08 00:41:47;;;;;;;25.90;15.65;;;;;;;;;;5072843;28;20200;-65
2020/12/08 00:44:13;;;;;;;29.20;15.63;;;;;;;;;;5072937;28;20196;-65
2020/12/08 00:46:40;;;;;;;27.77;17.45;;;;;;;;;;5071743;28;20551;-65
2020/12/08 00:49:07;;;;;;;29.73;17.35;;;;;;;;;;5073171;28;20216;-65
2020/12/08 00:51:33;;;;;;;32.08;17.90;;;;;;;;;;5073054;28;20196;-65
2020/12/08 00:54:02;;;;;;;31.48;18.38;;;;;;;;;;5073053;28;20200;-64
2020/12/08 00:56:31;;;;;;;32.80;18.75;;;;;;;;;;5074446;28;20188;-64
2020/12/08 00:58:58;;;;;;;32.60;18.50;;;;;;;;;;5076571;28;20659;-64
2020/12/08 01:01:25;;;;;;;32.63;19.17;;;;;;;;;;5076420;28;20192;-64
2020/12/08 01:03:51;;;;;;;31.75;17.27;;;;;;;;;;5076526;28;20792;-64
2020/12/08 01:06:18;;;;;;;31.52;18.80;;;;;;;;;;5076352;28;20192;-64
2020/12/08 01:08:45;;;;;;;28.17;17.48;;;;;;;;;;5076479;28;20196;-64
2020/12/08 01:11:12;;;;;;;31.13;18.98;;;;;;;;;;5076286;28;20663;-64
2020/12/08 01:13:38;;;;;;;31.83;18.23;;;;;;;;;;5076537;28;20539;-64
2020/12/08 01:16:06;;;;;;;34.75;18.77;;;;;;;;;;5075054;28;20204;-64
2020/12/08 01:18:33;;;;;;;28.15;16.90;;;;;;;;;;5076209;28;20602;-64
2020/12/08 01:21:00;;;;;;;28.10;16.60;;;;;;;;;;5076123;28;20192;-64
2020/12/08 01:23:26;;;;;;;29.42;16.55;;;;;;;;;;5076124;28;20212;-65
2020/12/08 01:25:53;;;;;;;33.42;17.63;;;;;;;;;;5074691;28;20204;-64
2020/12/08 01:28:20;;;;;;;32.45;18.77;;;;;;;;;;5075171;28;20207;-67
2020/12/08 01:30:49;;;;;;;30.30;18.20;;;;;;;;;;5075783;28;20311;-66
2020/12/08 01:33:15;;;;;;;31.65;17.95;;;;;;;;;;5076189;28;20196;-66
2020/12/08 01:35:45;;;;;;;27.60;16.88;;;;;;;;;;5075864;28;20195;-66
2020/12/08 01:38:11;;;;;;;31.85;18.10;;;;;;;;;;5075758;28;20204;-66
2020/12/08 01:40:41;;;;;;;29.80;17.88;;;;;;;;;;5075864;28;20716;-64
2020/12/08 01:43:08;;;;;;;28.42;16.52;;;;;;;;;;5075686;28;20218;-63
2020/12/08 01:45:34;;;;;;;25.48;16.08;;;;;;;;;;5075954;28;20717;-63
2020/12/08 01:48:01;;;;;;;29.58;17.30;;;;;;;;;;5076081;28;20258;-65
2020/12/08 01:50:28;;;;;;;26.48;17.58;;;;;;;;;;5075891;28;20192;-64
2020/12/08 01:52:54;;;;;;;29.65;18.30;;;;;;;;;;5075604;28;20192;-65
2020/12/08 01:55:21;;;;;;;32.78;19.00;;;;;;;;;;5075628;28;20203;-65
2020/12/08 01:57:48;;;;;;;33.92;18.73;;;;;;;;;;5075692;28;20192;-65
2020/12/08 02:00:14;;;;;;;30.20;17.65;;;;;;;;;;5075810;28;20188;-65
2020/12/08 02:02:44;;;;;;;27.52;17.75;;;;;;;;;;5075095;28;20234;-65
2020/12/08 02:05:14;;;;;;;32.75;18.77;;;;;;;;;;5075353;28;20210;-64
2020/12/08 02:07:44;;;;;;;26.25;17.63;;;;;;;;;;5074821;28;20203;-64
2020/12/08 02:10:10;;;;;;;29.88;18.17;;;;;;;;;;5073467;28;20211;-64
2020/12/08 02:12:37;;;;;;;26.60;16.75;;;;;;;;;;5075425;28;20612;-64
2020/12/08 02:15:04;;;;;;;26.75;16.80;;;;;;;;;;5075212;28;20188;-64
2020/12/08 02:17:30;;;;;;;30.30;17.77;;;;;;;;;;5075438;28;20200;-64
2020/12/08 02:19:57;;;;;;;28.90;16.50;;;;;;;;;;5075399;28;20653;-64
2020/12/08 02:22:23;;;;;;;27.48;16.92;;;;;;;;;;5074795;28;20212;-64
2020/12/08 02:24:50;;;;;;;31.42;18.45;;;;;;;;;;5074963;28;20203;-64
2020/12/08 02:27:17;;;;;;;29.45;17.40;;;;;;;;;;5073548;28;20206;-64
2020/12/08 02:29:43;;;;;;;28.42;18.65;;;;;;;;;;5074657;28;20236;-64
2020/12/08 02:32:10;;;;;;;31.50;18.27;;;;;;;;;;5074882;28;20187;-64
2020/12/08 02:34:37;;;;;;;28.02;17.10;;;;;;;;;;5074759;28;20200;-64
2020/12/08 02:37:03;;;;;;;31.05;18.20;;;;;;;;;;5075025;28;20278;-64
2020/12/08 02:39:30;;;;;;;25.63;15.43;;;;;;;;;;5074686;28;20547;-64
2020/12/08 02:41:58;;;;;;;31.05;18.80;;;;;;;;;;5074669;28;20195;-64
2020/12/08 02:44:25;;;;;;;30.45;17.90;;;;;;;;;;5075068;28;20238;-66
2020/12/08 02:46:53;;;;;;;27.92;16.60;;;;;;;;;;5074905;28;20188;-64
2020/12/08 02:49:21;;;;;;;27.25;16.95;;;;;;;;;;5074209;28;20226;-65
2020/12/08 02:51:48;;;;;;;27.63;17.10;;;;;;;;;;5072985;28;20203;-64
2020/12/08 02:54:14;;;;;;;31.48;18.73;;;;;;;;;;5074542;28;20226;-64
2020/12/08 02:56:41;;;;;;;27.02;17.05;;;;;;;;;;5074356;28;20199;-64
2020/12/08 02:59:09;;;;;;;32.20;19.55;;;;;;;;;;5074139;28;20188;-64
2020/12/08 03:01:37;;;;;;;31.63;18.55;;;;;;;;;;5074034;28;20203;-65
2020/12/08 03:04:03;;;;;;;30.23;18.55;;;;;;;;;;5074088;28;20211;-65
2020/12/08 03:06:30;;;;;;;29.67;19.02;;;;;;;;;;5074373;28;20196;-64
2020/12/08 03:08:57;;;;;;;31.20;19.92;;;;;;;;;;5074102;28;20196;-64
2020/12/08 03:11:30;;;;;;;32.33;19.90;;;;;;;;;;5073066;28;20209;-64
2020/12/08 03:13:56;;;;;;;33.25;20.02;;;;;;;;;;5074140;28;20244;-64
2020/12/08 03:16:25;;;;;;;31.08;19.60;;;;;;;;;;5074048;28;20639;-65
2020/12/08 03:18:52;;;;;;;28.65;18.77;;;;;;;;;;5074494;28;20195;-65
2020/12/08 03:21:18;;;;;;;34.38;18.23;;;;;;;;;;5073291;28;20697;-65
2020/12/08 03:23:45;;;;;;;32.28;20.30;;;;;;;;;;5072804;28;20219;-65
2020/12/08 03:26:20;;;;;;;34.78;21.40;;;;;;;;;;5072761;28;20275;-64
2020/12/08 03:28:46;;;;;;;35.60;20.67;;;;;;;;;;5072361;28;20281;-64
2020/12/08 03:31:13;;;;;;;36.83;20.73;;;;;;;;;;5073674;28;20211;-64
2020/12/08 03:33:40;;;;;;;34.10;20.48;;;;;;;;;;5073882;28;20215;-64
2020/12/08 03:36:20;;;;;;;32.40;21.35;;;;;;;;;;5073662;28;20196;-65
2020/12/08 03:38:50;;;;;;;32.50;20.35;;;;;;;;;;5073831;28;20627;-64
2020/12/08 03:41:22;;;;;;;31.52;19.90;;;;;;;;;;5072710;28;20253;-64
2020/12/08 03:43:52;;;;;;;30.05;19.13;;;;;;;;;;5073443;28;20215;-64
2020/12/08 03:46:19;;;;;;;32.30;20.77;;;;;;;;;;5073814;28;20188;-64
2020/12/08 03:48:46;;;;;;;31.55;18.33;;;;;;;;;;5073463;28;20212;-64
2020/12/08 03:51:15;;;;;;;30.52;19.30;;;;;;;;;;5073464;28;20204;-65
2020/12/08 03:53:44;;;;;;;32.08;19.50;;;;;;;;;;5073411;28;20215;-65
2020/12/08 03:56:16;;;;;;;31.63;20.38;;;;;;;;;;5073565;28;20188;-65
2020/12/08 03:58:42;;;;;;;35.72;23.52;;;;;;;;;;5073738;28;20546;-64
2020/12/08 04:01:14;;;;;;;33.15;19.70;;;;;;;;;;5073252;28;20196;-64
2020/12/08 04:03:44;;;;;;;36.67;21.98;;;;;;;;;;5073677;28;20223;-64
2020/12/08 04:06:12;;;;;;;39.00;21.65;;;;;;;;;;5073460;28;20659;-66
2020/12/08 04:08:45;;;;;;;33.42;20.30;;;;;;;;;;5073569;28;20208;-65
2020/12/08 04:11:13;;;;;;;36.05;21.48;;;;;;;;;;5073671;28;20200;-65
2020/12/08 04:13:40;;;;;;;38.15;21.98;;;;;;;;;;5073495;28;20198;-65
2020/12/08 04:16:12;;;;;;;40.50;23.63;;;;;;;;;;5073586;28;20204;-64
2020/12/08 04:18:39;;;;;;;43.20;24.58;;;;;;;;;;5073687;28;20187;-65
2020/12/08 04:21:05;;;;;;;42.58;23.90;;;;;;;;;;5073600;28;20269;-65
2020/12/08 04:23:32;;;;;;;36.38;21.58;;;;;;;;;;5073462;28;20226;-65
2020/12/08 04:25:59;;;;;;;34.60;21.02;;;;;;;;;;5073370;28;20184;-65
2020/12/08 04:28:26;;;;;;;41.38;23.23;;;;;;;;;;5073254;28;20215;-65
2020/12/08 04:30:53;;;;;;;39.45;22.40;;;;;;;;;;5073220;28;20228;-65
2020/12/08 04:33:20;;;;;;;38.10;21.13;;;;;;;;;;5076163;28;20192;-65
2020/12/08 04:35:49;;;;;;;40.10;23.00;;;;;;;;;;5075775;28;20648;-65
2020/12/08 04:38:16;;;;;;;38.40;21.88;;;;;;;;;;5077045;28;20211;-65
2020/12/08 04:40:47;;;;;;;36.50;19.65;;;;;;;;;;5077128;28;20192;-65
2020/12/08 04:43:14;;;;;;;35.63;21.67;;;;;;;;;;5077052;28;20224;-65
2020/12/08 04:45:41;;;;;;;38.28;23.08;;;;;;;;;;5076831;28;20666;-65
2020/12/08 04:48:07;;;;;;;37.13;21.05;;;;;;;;;;5076782;28;20220;-65
2020/12/08 04:50:34;;;;;;;36.85;21.92;;;;;;;;;;5077044;28;20585;-65
2020/12/08 04:53:05;;;;;;;38.67;22.00;;;;;;;;;;5076742;28;20180;-65
2020/12/08 04:55:34;;;;;;;40.53;23.25;;;;;;;;;;5076699;28;20226;-65
2020/12/08 04:58:02;;;;;;;37.63;22.55;;;;;;;;;;5076577;28;20208;-65
2020/12/08 05:00:28;;;;;;;39.25;22.90;;;;;;;;;;5076721;28;20188;-65
2020/12/08 05:02:56;;;;;;;37.13;21.58;;;;;;;;;;5076483;28;20216;-65
2020/12/08 05:05:23;;;;;;;47.20;24.60;;;;;;;;;;5076517;28;20204;-65
2020/12/08 05:07:53;;;;;;;36.80;22.08;;;;;;;;;;5075498;28;20259;-65
2020/12/08 05:10:29;;;;;;;37.50;21.75;;;;;;;;;;5076388;28;20192;-65
2020/12/08 05:12:56;;;;;;;42.30;24.20;;;;;;;;;;5075272;28;20383;-65
2020/12/08 05:15:23;;;;;;;38.10;23.10;;;;;;;;;;5076475;28;20215;-65
2020/12/08 05:17:50;;;;;;;40.40;22.80;;;;;;;;;;5076718;28;20192;-65
2020/12/08 05:20:18;;;;;;;41.42;23.52;;;;;;;;;;5076561;28;20204;-65
2020/12/08 05:22:55;;;;;;;40.35;23.70;;;;;;;;;;5076437;28;20215;-65
2020/12/08 05:25:25;;;;;;;38.30;22.17;;;;;;;;;;5076375;28;20208;-65
2020/12/08 05:27:55;;;;;;;38.63;21.85;;;;;;;;;;5076375;28;20273;-65
2020/12/08 05:30:21;;;;;;;42.03;24.27;;;;;;;;;;5075865;28;20223;-65
2020/12/08 05:32:48;;;;;;;40.75;23.80;;;;;;;;;;5076111;28;20553;-65
2020/12/08 05:35:19;;;;;;;43.33;24.88;;;;;;;;;;5076028;28;20204;-65
2020/12/08 05:37:46;;;;;;;41.38;23.77;;;;;;;;;;5076001;28;20182;-65
2020/12/08 05:40:19;;;;;;;38.92;22.60;;;;;;;;;;5074778;28;20196;-65
2020/12/08 05:42:47;;;;;;;44.47;25.67;;;;;;;;;;5074776;28;20196;-66
2020/12/08 05:45:15;;;;;;;44.00;24.60;;;;;;;;;;5075846;28;20648;-65
2020/12/08 05:47:45;;;;;;;41.72;25.45;;;;;;;;;;5075664;28;20208;-65
2020/12/08 05:50:12;;;;;;;43.72;23.27;;;;;;;;;;5076016;28;20199;-65
2020/12/08 05:53:05;;;;;;;44.47;25.45;;;;;;;;;;5075774;28;20168;-65
2020/12/08 05:55:32;;;;;;;43.45;23.92;;;;;;;;;;5074347;28;20234;-65
2020/12/08 05:58:06;;;;;;;42.00;24.02;;;;;;;;;;5075596;28;20188;-65
2020/12/08 06:00:34;;;;;;;40.97;23.90;;;;;;;;;;5075387;28;20183;-65
2020/12/08 06:03:10;;;;;;;35.22;20.92;;;;;;;;;;5075599;28;20686;-65
2020/12/08 06:05:37;;;;;;;38.97;22.95;;;;;;;;;;5075520;28;20635;-66
2020/12/08 06:08:15;;;;;;;50.00;25.80;;;;;;;;;;5074368;28;20291;-66
2020/12/08 06:10:46;;;;;;;41.97;23.38;;;;;;;;;;5075543;28;20233;-65
2020/12/08 06:13:22;;;;;;;45.30;23.80;;;;;;;;;;5074088;28;20196;-65
2020/12/08 06:15:49;;;;;;;43.28;24.00;;;;;;;;;;5075513;28;20639;-65
2020/12/08 06:18:16;;;;;;;43.17;25.08;;;;;;;;;;5057532;28;20214;-65
2020/12/08 06:20:46;;;;;;;42.20;24.63;;;;;;;;;;5075923;28;20217;-65
2020/12/08 06:23:15;;;;;;;42.17;25.33;;;;;;;;;;5074962;28;20224;-65
2020/12/08 06:25:43;;;;;;;46.63;24.73;;;;;;;;;;5074992;28;20200;-65
2020/12/08 06:28:12;;;;;;;44.17;24.30;;;;;;;;;;5075133;28;20191;-71
2020/12/08 06:30:38;;;;;;;51.20;26.80;;;;;;;;;;5074816;28;20224;-64
2020/12/08 06:33:05;;;;;;;43.30;25.15;;;;;;;;;;5075183;28;20253;-64
2020/12/08 06:35:32;;;;;;;41.92;24.70;;;;;;;;;;5074645;28;20192;-64
2020/12/08 06:38:00;;;;;;;48.38;26.00;;;;;;;;;;5074554;28;20196;-64
2020/12/08 06:40:27;;;;;;;49.28;24.90;;;;;;;;;;5073027;28;20210;-64
2020/12/08 06:42:56;;;;;;;44.33;24.23;;;;;;;;;;5074386;28;20203;-64
2020/12/08 06:45:24;;;;;;;49.65;25.48;;;;;;;;;;5074278;28;20257;-66
2020/12/08 06:47:51;;;;;;;44.03;25.55;;;;;;;;;;5074655;28;20212;-65
2020/12/08 06:50:23;;;;;;;46.72;23.77;;;;;;;;;;5074199;28;20189;-64
2020/12/08 06:52:53;;;;;;;43.45;25.17;;;;;;;;;;5074446;28;20200;-64
2020/12/08 06:55:21;;;;;;;39.75;24.10;;;;;;;;;;5072262;28;20664;-65
2020/12/08 06:57:48;;;;;;;52.22;26.35;;;;;;;;;;5074503;28;20204;-65
2020/12/08 07:00:16;;;;;;;45.83;24.83;;;;;;;;;;5074384;28;20192;-65
2020/12/08 07:02:48;;;;;;;43.67;24.23;;;;;;;;;;5074031;28;20187;-65
2020/12/08 07:05:23;;;;;;;47.78;24.90;;;;;;;;;;5073085;28;20214;-66
2020/12/08 07:07:50;;;;;;;60.08;25.80;;;;;;;;;;5074242;28;20195;-66
2020/12/08 07:10:19;;;;;;;38.67;22.67;;;;;;;;;;5074033;28;20285;-66
2020/12/08 07:12:49;;;;;;;44.00;24.98;;;;;;;;;;5075019;28;20271;-65
2020/12/08 07:15:20;;;;;;;52.60;26.55;;;;;;;;;;5073710;28;20226;-66
2020/12/08 07:18:13;;;;;;;50.35;26.13;;;;;;;;;;5074218;28;20662;-66
2020/12/08 07:20:43;;;;;;;46.97;24.27;;;;;;;;;;5074198;28;20200;-66
2020/12/08 07:23:11;;;;;;;52.50;25.88;;;;;;;;;;5073811;28;20296;-66
2020/12/08 07:25:38;;;;;;;50.80;27.95;;;;;;;;;;5073695;28;20200;-66
2020/12/08 07:28:05;;;;;;;47.15;26.90;;;;;;;;;;5073275;28;20196;-66
2020/12/08 07:30:32;;;;;;;49.15;25.83;;;;;;;;;;5073819;28;20227;-66
2020/12/08 07:33:14;;;;;;;52.38;25.73;;;;;;;;;;5073593;28;20199;-66
2020/12/08 07:35:44;;;;;;;49.08;27.60;;;;;;;;;;5073929;28;20203;-66
2020/12/08 07:38:14;;;;;;;40.60;24.95;;;;;;;;;;5073568;28;20172;-66
2020/12/08 07:40:41;;;;;;;50.90;27.05;;;;;;;;;;5072399;28;20195;-66
2020/12/08 07:43:10;;;;;;;46.45;26.20;;;;;;;;;;5073163;28;20224;-65
2020/12/08 07:45:47;;;;;;;46.25;24.45;;;;;;;;;;5073885;28;20217;-66
2020/12/08 07:48:18;;;;;;;43.10;25.40;;;;;;;;;;5073852;28;20742;-66
2020/12/08 07:50:44;;;;;;;47.65;26.05;;;;;;;;;;5073794;28;20234;-66
2020/12/08 07:53:12;;;;;;;45.25;26.63;;;;;;;;;;5073622;28;20195;-65
2020/12/08 07:55:46;;;;;;;40.42;22.52;;;;;;;;;;5073708;28;20693;-65
2020/12/08 07:58:13;;;;;;;45.35;25.67;;;;;;;;;;5073720;28;20206;-65
2020/12/08 08:00:40;;;;;;;45.80;24.23;;;;;;;;;;5073712;28;20196;-65
2020/12/08 08:03:09;;;;;;;45.58;25.20;;;;;;;;;;5073453;28;20216;-65
2020/12/08 08:05:39;;;;;;;43.90;25.02;;;;;;;;;;5073834;28;20635;-65
2020/12/08 08:08:05;;;;;;;36.60;22.17;;;;;;;;;;5077912;28;20196;-65
2020/12/08 08:10:33;;;;;;;40.33;23.60;;;;;;;;;;5076628;28;20613;-65
2020/12/08 08:13:00;;;;;;;38.58;22.45;;;;;;;;;;5077768;28;20188;-65
2020/12/08 08:15:30;;;;;;;38.10;24.50;;;;;;;;;;5078105;28;20195;-66
2020/12/08 08:17:56;;;;;;;38.08;23.88;;;;;;;;;;5078068;28;20237;-66
2020/12/08 08:20:23;;;;;;;40.92;24.40;;;;;;;;;;5078098;28;20192;-66
2020/12/08 08:22:50;;;;;;;43.63;23.55;;;;;;;;;;5076770;28;20200;-66
2020/12/08 08:25:18;;;;;;;38.40;22.50;;;;;;;;;;5077667;28;20216;-66
2020/12/08 08:27:47;;;;;;;38.28;24.58;;;;;;;;;;5060421;28;20206;-66
2020/12/08 08:30:17;;;;;;;37.42;22.27;;;;;;;;;;5078193;28;20620;-66
2020/12/08 08:32:46;;;;;;;40.58;23.52;;;;;;;;;;5078057;28;20201;-66
2020/12/08 08:35:13;;;;;;;42.10;22.92;;;;;;;;;;5077740;28;20574;-65
2020/12/08 08:37:39;;;;;;;40.13;24.80;;;;;;;;;;5077413;28;20192;-66
2020/12/08 08:40:06;;;;;;;36.63;21.25;;;;;;;;;;5077577;28;20200;-66
2020/12/08 08:42:33;;;;;;;41.53;22.88;;;;;;;;;;5076837;28;20215;-66
2020/12/08 08:44:59;;;;;;;38.90;22.17;;;;;;;;;;5077279;28;20220;-66
2020/12/08 08:47:26;;;;;;;39.92;22.95;;;;;;;;;;5076701;28;20618;-66
2020/12/08 08:49:53;;;;;;;41.90;23.80;;;;;;;;;;5076328;28;20696;-66
2020/12/08 08:52:20;;;;;;;36.35;21.52;;;;;;;;;;5076670;28;20275;-65
2020/12/08 08:54:48;;;;;;;40.17;20.85;;;;;;;;;;5076472;28;20202;-65
2020/12/08 08:57:14;;;;;;;39.53;22.23;;;;;;;;;;5076348;28;20639;-65
2020/12/08 08:59:43;;;;;;;35.97;22.48;;;;;;;;;;5076592;28;20643;-65
2020/12/08 09:02:10;;;;;;;34.72;21.17;;;;;;;;;;5076735;28;20215;-65
2020/12/08 09:04:36;;;;;;;37.40;22.80;;;;;;;;;;5076644;28;20572;-65
2020/12/08 09:07:03;;;;;;;36.13;21.85;;;;;;;;;;5076530;28;20191;-65
2020/12/08 09:09:29;;;;;;;37.25;22.33;;;;;;;;;;5076746;28;20207;-65
2020/12/08 09:11:57;;;;;;;39.25;21.00;;;;;;;;;;5076867;28;20236;-65
2020/12/08 09:14:26;;;;;;;36.85;21.60;;;;;;;;;;5076845;28;20200;-65
2020/12/08 09:16:53;;;;;;;34.80;22.63;;;;;;;;;;5076240;28;20238;-65
2020/12/08 09:19:20;;;;;;;30.77;20.38;;;;;;;;;;5074944;28;20203;-65
2020/12/08 09:21:50;;;;;;;35.85;21.88;;;;;;;;;;5076202;28;20203;-65
2020/12/08 09:24:17;;;;;;;38.28;22.67;;;;;;;;;;5076247;28;20223;-65
2020/12/08 09:26:44;;;;;;;39.22;24.13;;;;;;;;;;5076059;28;20200;-65
2020/12/08 09:29:10;;;;;;;36.72;22.10;;;;;;;;;;5075782;28;20585;-65
2020/12/08 09:31:40;;;;;;;36.10;23.05;;;;;;;;;;5076056;28;20663;-66
2020/12/08 09:34:07;;;;;;;34.92;22.75;;;;;;;;;;5075961;28;20655;-65
2020/12/08 09:36:35;;;;;;;35.45;22.33;;;;;;;;;;5076039;28;20269;-65
2020/12/08 09:39:01;;;;;;;35.97;22.80;;;;;;;;;;5074807;28;20199;-65
2020/12/08 09:41:28;;;;;;;43.22;25.70;;;;;;;;;;5075782;28;20667;-65
2020/12/08 09:43:55;;;;;;;36.25;23.10;;;;;;;;;;5075791;28;20216;-65
2020/12/08 09:46:22;;;;;;;33.67;22.13;;;;;;;;;;5076374;28;20207;-66
2020/12/08 09:48:48;;;;;;;37.15;22.45;;;;;;;;;;5075930;28;20216;-65
2020/12/08 09:51:16;;;;;;;40.78;23.40;;;;;;;;;;5075532;28;20204;-65
2020/12/08 09:53:43;;;;;;;35.95;21.80;;;;;;;;;;5074153;28;20656;-65
2020/12/08 09:56:12;;;;;;;45.95;23.60;;;;;;;;;;5075543;28;20208;-65
2020/12/08 09:58:38;;;;;;;37.63;24.30;;;;;;;;;;5075784;28;20192;-66
2020/12/08 10:01:05;;;;;;;37.33;23.15;;;;;;;;;;5075254;28;20215;-65
2020/12/08 10:03:31;;;;;;;35.22;23.05;;;;;;;;;;5075063;28;20200;-65
2020/12/08 10:05:58;;;;;;;33.75;21.60;;;;;;;;;;5075394;28;20204;-65
2020/12/08 10:08:25;;;;;;;30.60;21.70;;;;;;;;;;5075361;28;20196;-65
2020/12/08 10:10:51;;;;;;;32.38;21.23;;;;;;;;;;5075535;28;20211;-65
2020/12/08 10:13:18;;;;;;;33.67;20.85;;;;;;;;;;5075255;28;20191;-65
2020/12/08 10:15:45;;;;;;;36.00;22.48;;;;;;;;;;5075125;28;20188;-65
2020/12/08 10:18:11;;;;;;;35.78;22.25;;;;;;;;;;5075057;28;20530;-65
2020/12/08 10:20:38;;;;;;;36.83;22.35;;;;;;;;;;5074870;28;20210;-65
2020/12/08 10:23:06;;;;;;;29.25;21.55;;;;;;;;;;5075072;28;20200;-65
2020/12/08 10:25:33;;;;;;;32.13;20.60;;;;;;;;;;5073960;28;20235;-65
2020/12/08 10:28:00;;;;;;;33.38;23.63;;;;;;;;;;5074177;28;20723;-65
2020/12/08 10:30:27;;;;;;;34.72;22.20;;;;;;;;;;5073015;28;20277;-65
2020/12/08 10:32:53;;;;;;;29.90;20.27;;;;;;;;;;5073696;28;20207;-65
2020/12/08 10:35:20;;;;;;;32.90;22.20;;;;;;;;;;5075112;28;20287;-65
2020/12/08 10:37:46;;;;;;;31.23;20.90;;;;;;;;;;5074770;28;20565;-66
2020/12/08 10:40:14;;;;;;;30.25;21.58;;;;;;;;;;5074909;28;20208;-66
2020/12/08 10:42:45;;;;;;;29.92;20.48;;;;;;;;;;5075686;28;20629;-65
2020/12/08 10:45:12;;;;;;;30.00;20.55;;;;;;;;;;5075188;28;20234;-65
2020/12/08 10:47:38;;;;;;;30.73;20.77;;;;;;;;;;5074422;28;20222;-65
2020/12/08 10:50:05;;;;;;;31.55;21.27;;;;;;;;;;5074521;28;20226;-65
2020/12/08 10:52:32;;;;;;;30.35;21.70;;;;;;;;;;5074390;28;20222;-65
2020/12/08 10:55:00;;;;;;;33.75;23.13;;;;;;;;;;5074259;28;20274;-65
2020/12/08 10:57:28;;;;;;;30.00;21.33;;;;;;;;;;5074414;28;20188;-65
2020/12/08 10:59:57;;;;;;;34.53;20.55;;;;;;;;;;5074183;28;20242;-65
2020/12/08 11:02:26;;;;;;;30.33;20.83;;;;;;;;;;5074468;28;20276;-65
2020/12/08 11:04:52;;;;;;;29.63;19.88;;;;;;;;;;5073950;28;20216;-65
2020/12/08 11:07:19;;;;;;;27.02;20.27;;;;;;;;;;5073975;28;20273;-65
2020/12/08 11:09:46;;;;;;;36.22;22.63;;;;;;;;;;5073929;28;20226;-65
2020/12/08 11:12:14;;;;;;;30.33;21.33;;;;;;;;;;5074021;28;20206;-65
2020/12/08 11:14:43;;;;;;;31.13;20.45;;;;;;;;;;5072850;28;20522;-65
2020/12/08 11:17:15;;;;;;;32.38;22.27;;;;;;;;;;5074093;28;20234;-64
2020/12/08 11:19:43;;;;;;;33.83;23.27;;;;;;;;;;5073773;28;20196;-66
2020/12/08 11:22:11;;;;;;;30.83;23.35;;;;;;;;;;5073885;28;20192;-66
2020/12/08 11:24:38;;;;;;;35.03;22.50;;;;;;;;;;5074062;28;20216;-66
2020/12/08 11:27:14;;;;;;;29.42;19.58;;;;;;;;;;5073641;28;20241;-66
2020/12/08 11:29:40;;;;;;;28.55;20.92;;;;;;;;;;5073529;28;20594;-66
2020/12/08 11:32:07;;;;;;;29.05;19.67;;;;;;;;;;5073983;28;20261;-66
2020/12/08 11:34:36;;;;;;;27.45;20.23;;;;;;;;;;5073667;28;20203;-66
2020/12/08 11:37:03;;;;;;;30.02;21.27;;;;;;;;;;5074139;28;20679;-66
2020/12/08 11:39:30;;;;;;;27.10;18.40;;;;;;;;;;5073952;28;20212;-66
2020/12/08 11:41:57;;;;;;;27.30;20.70;;;;;;;;;;5066661;28;20197;-66
2020/12/08 11:44:24;;;;;;;28.48;20.50;;;;;;;;;;5065243;28;20224;-66
2020/12/08 11:46:51;;;;;;;33.60;21.27;;;;;;;;;;5073566;28;20194;-66
2020/12/08 11:49:20;;;;;;;27.50;20.63;;;;;;;;;;5062887;28;20212;-66
2020/12/08 11:51:47;;;;;;;27.35;20.40;;;;;;;;;;5068968;28;20294;-65
2020/12/08 11:54:16;;;;;;;29.75;20.77;;;;;;;;;;5071750;28;20200;-65
2020/12/08 11:56:43;;;;;;;30.75;21.70;;;;;;;;;;5073121;28;20192;-65
2020/12/08 11:59:10;;;;;;;35.25;22.00;;;;;;;;;;5073394;28;20200;-66
2020/12/08 12:01:37;;;;;;;29.83;22.80;;;;;;;;;;5072943;28;20743;-64
2020/12/08 12:04:03;;;;;;;28.05;20.70;;;;;;;;;;5071432;28;20226;-64
2020/12/08 12:06:30;;;;;;;25.38;20.10;;;;;;;;;;5073167;28;20645;-65
2020/12/08 12:08:58;;;;;;;28.77;19.90;;;;;;;;;;5058884;28;20188;-64
2020/12/08 12:11:25;;;;;;;31.10;20.92;;;;;;;;;;5072928;28;20199;-64
2020/12/08 12:13:52;;;;;;;28.42;21.00;;;;;;;;;;5073553;28;20188;-65
2020/12/08 12:16:20;;;;;;;37.40;20.73;;;;;;;;;;5073700;28;20188;-65
2020/12/08 12:18:46;;;;;;;25.08;20.05;;;;;;;;;;5074414;28;20195;-64
2020/12/08 12:21:14;;;;;;;27.20;21.25;;;;;;;;;;5073809;28;20200;-64
2020/12/08 12:23:43;;;;;;;25.85;20.75;;;;;;;;;;5073640;28;20168;-64
2020/12/08 12:26:13;;;;;;;25.25;20.70;;;;;;;;;;5073947;28;20195;-64
2020/12/08 12:28:39;;;;;;;23.75;19.75;;;;;;;;;;5072760;28;20568;-64
2020/12/08 12:31:12;;;;;;;27.17;20.55;;;;;;;;;;5073265;28;20199;-64
2020/12/08 12:33:41;;;;;;;35.22;23.65;;;;;;;;;;5073496;28;20196;-64
2020/12/08 12:36:08;;;;;;;24.88;19.40;;;;;;;;;;5073101;28;20556;-64
2020/12/08 12:38:35;;;;;;;25.15;18.90;;;;;;;;;;5071806;28;20200;-64
2020/12/08 12:41:01;;;;;;;25.88;19.20;;;;;;;;;;5072924;28;20213;-64
2020/12/08 12:43:28;;;;;;;25.05;18.70;;;;;;;;;;5073342;28;20582;-64
2020/12/08 12:45:55;;;;;;;22.10;18.95;;;;;;;;;;5073236;28;20237;-64
2020/12/08 12:48:21;;;;;;;23.52;19.13;;;;;;;;;;5055225;28;20223;-66
2020/12/08 12:50:48;;;;;;;26.40;20.20;;;;;;;;;;5072281;28;20176;-70
2020/12/08 12:53:14;;;;;;;25.50;18.98;;;;;;;;;;5076015;28;20599;-65
2020/12/08 12:55:41;;;;;;;23.83;18.70;;;;;;;;;;5076953;28;20204;-65
2020/12/08 12:58:07;;;;;;;20.13;17.88;;;;;;;;;;5076643;28;20197;-65
2020/12/08 13:00:39;;;;;;;25.27;17.55;;;;;;;;;;5076591;28;20199;-64
2020/12/08 13:03:05;;;;;;;21.30;17.60;;;;;;;;;;5076398;28;20863;-65
2020/12/08 13:05:32;;;;;;;23.50;18.58;;;;;;;;;;5076753;28;20216;-65
2020/12/08 13:07:59;;;;;;;22.02;15.77;;;;;;;;;;5075851;28;20593;-65
2020/12/08 13:10:26;;;;;;;22.90;18.88;;;;;;;;;;5076618;28;20196;-65
2020/12/08 13:12:55;;;;;;;24.77;20.10;;;;;;;;;;5076841;28;20713;-64
2020/12/08 13:15:23;;;;;;;25.48;19.02;;;;;;;;;;5076290;28;20207;-64
2020/12/08 13:17:50;;;;;;;34.08;22.30;;;;;;;;;;5076460;28;20200;-64
2020/12/08 13:20:17;;;;;;;27.23;20.77;;;;;;;;;;5076375;28;20651;-64
2020/12/08 13:22:44;;;;;;;27.50;19.48;;;;;;;;;;5076096;28;20203;-64
2020/12/08 13:25:10;;;;;;;29.73;20.00;;;;;;;;;;5076278;28;20215;-64
2020/12/08 13:27:37;;;;;;;31.17;18.35;;;;;;;;;;5076107;28;20274;-64
2020/12/08 13:30:04;;;;;;;37.15;22.80;;;;;;;;;;5076067;28;20711;-65
2020/12/08 13:32:31;;;;;;;29.50;20.60;;;;;;;;;;5076689;28;20200;-64
2020/12/08 13:34:58;;;;;;;27.55;19.60;;;;;;;;;;5076917;28;20207;-65
2020/12/08 13:37:25;;;;;;;36.28;20.17;;;;;;;;;;5076177;28;20224;-65
2020/12/08 13:39:57;;;;;;;31.75;20.88;;;;;;;;;;5076346;28;20188;-64
2020/12/08 13:42:23;;;;;;;27.27;20.15;;;;;;;;;;5076171;28;20549;-64
2020/12/08 13:44:50;;;;;;;34.20;21.23;;;;;;;;;;5074377;28;20228;-64
2020/12/08 13:47:18;;;;;;;25.38;18.77;;;;;;;;;;5067381;28;20258;-65
2020/12/08 13:49:46;;;;;;;32.38;20.10;;;;;;;;;;5064407;28;20228;-64
2020/12/08 13:52:13;;;;;;;27.63;19.65;;;;;;;;;;5065194;28;20207;-66
2020/12/08 13:54:40;;;;;;;27.85;19.25;;;;;;;;;;5074941;28;20196;-65
2020/12/08 13:57:07;;;;;;;36.78;21.77;;;;;;;;;;5074994;28;20208;-65
2020/12/08 13:59:37;;;;;;;40.17;21.52;;;;;;;;;;5074740;28;20276;-65
2020/12/08 14:02:07;;;;;;;32.33;20.30;;;;;;;;;;5074600;28;20287;-65
2020/12/08 14:04:33;;;;;;;37.17;19.70;;;;;;;;;;5074852;28;20219;-65
2020/12/08 14:07:01;;;;;;;36.30;19.48;;;;;;;;;;5073580;28;20210;-64
2020/12/08 14:09:29;;;;;;;32.35;20.70;;;;;;;;;;5074903;28;20191;-65
2020/12/08 14:11:56;;;;;;;29.45;20.75;;;;;;;;;;5074605;28;20626;-65
2020/12/08 14:14:24;;;;;;;27.20;18.95;;;;;;;;;;5074472;28;20605;-65
2020/12/08 14:16:51;;;;;;;30.13;21.05;;;;;;;;;;5074495;28;20223;-65
2020/12/08 14:19:17;;;;;;;27.38;19.70;;;;;;;;;;5074565;28;20234;-65